Date,TemperatureHighF,TemperatureAvgF,TemperatureLowF,DewpointHighF,DewpointAvgF,DewpointLowF,HumidityHigh,HumidityAvg,HumidityLow,PressureMaxIn,PressureMinIn,WindSpeedMaxMPH,WindSpeedAvgMPH,GustSpeedMaxMPH,PrecipitationSumIn
2013-1-1,69.0,60.2,49.4,68.9,57.8,44.8,100,92,81,30.20,29.88,20,4,21,0.10
2013-1-2,49.4,42.8,40.0,45.1,40.5,38.0,100,92,76,30.35,30.17,12,2,19,0.31
2013-1-3,49.7,45.4,41.6,39.1,37.7,35.0,90,75,58,30.44,30.32,12,2,15,0.00
2013-1-4,49.9,47.8,44.6,41.8,40.5,38.4,87,76,69,30.47,30.36,12,3,17,0.01
2013-1-5,48.9,47.0,44.6,46.8,43.6,39.4,94,88,75,30.38,30.27,15,2,17,0.00
2013-1-6,63.9,49.9,40.6,49.2,45.2,40.5,100,85,57,30.38,30.27,12,1,17,0.00
2013-1-7,61.3,51.6,40.6,55.4,49.0,39.5,100,91,75,30.33,30.02,15,2,23,0.05
2013-1-8,67.5,62.1,55.3,67.5,62.1,55.3,100,100,100,30.02,29.80,29,4,29,0.12
2013-1-9,68.8,62.8,57.1,68.8,62.7,57.1,100,99,90,30.06,29.82,32,4,32,1.23
2013-1-10,66.7,58.5,52.7,57.4,53.9,51.3,100,86,63,30.13,30.04,17,2,17,0.01
2013-1-11,72.8,64.4,53.1,69.8,63.6,53.1,100,97,88,30.07,29.84,17,3,17,0.00
2013-1-12,69.8,69.1,68.4,69.8,69.1,68.4,100,100,100,29.87,29.78,17,6,18,0.00
2013-1-13,56.6,52.7,47.2,44.0,42.0,39.8,88,67,56,30.12,30.03,13,6,26,0.06
2013-1-14,49.6,45.2,42.2,43.7,40.7,37.6,93,84,70,30.22,30.09,16,3,19,0.00
2013-1-15,45.5,42.7,40.7,45.4,41.8,37.6,100,97,87,30.26,30.07,17,4,19,0.19
2013-1-16,57.6,45.5,35.0,38.0,29.7,21.8,88,57,26,30.41,30.23,27,5,29,0.00
2013-1-17,66.5,49.5,35.2,45.4,36.9,27.3,93,64,38,30.49,30.34,12,1,13,0.00
2013-1-18,63.9,51.2,39.2,51.5,46.4,39.0,100,86,57,30.53,30.35,15,1,19,0.00
2013-1-19,68.9,58.0,47.1,58.2,52.9,47.1,100,85,58,30.35,30.18,18,2,19,0.01
2013-1-20,70.8,59.4,45.8,61.0,55.3,45.8,100,87,65,30.27,30.12,17,2,17,0.00
2013-1-21,69.2,60.0,51.6,62.0,56.8,51.6,100,90,71,30.25,30.13,10,1,12,0.01
2013-1-22,70.8,60.0,49.5,64.4,57.0,49.4,100,91,67,30.32,30.19,12,1,15,0.01
2013-1-23,74.8,63.5,52.8,67.0,61.1,52.8,100,93,75,30.35,30.24,18,3,19,0.00
2013-1-24,74.2,66.7,60.6,67.4,64.5,60.6,100,93,77,30.31,30.16,20,5,24,0.01
2013-1-25,74.7,67.3,61.4,68.1,64.9,61.4,100,92,79,30.18,30.06,24,6,24,0.02
2013-1-26,75.0,68.4,64.4,67.7,65.3,62.6,100,91,76,30.16,30.07,24,6,24,0.00
2013-1-27,73.8,68.8,63.9,70.6,67.7,62.6,100,96,89,30.11,29.99,26,6,26,0.00
2013-1-28,75.5,71.0,68.4,71.3,69.8,68.4,100,96,85,30.09,29.93,29,9,29,0.00
2013-1-29,75.2,70.6,67.6,71.8,68.5,48.8,100,94,51,29.94,29.61,31,11,38,0.00
2013-1-30,68.2,59.9,44.4,49.3,28.5,16.3,56,32,15,30.28,29.76,35,8,35,0.00
2013-1-31,67.5,55.5,40.2,51.3,39.9,22.7,87,59,19,30.35,30.24,18,2,18,0.00
2013-2-1,69.8,60.8,50.6,62.6,52.8,48.8,100,77,51,30.36,30.23,18,2,18,0.00
2013-2-2,73.8,64.6,57.3,62.1,59.7,56.1,100,85,63,30.26,30.17,16,2,17,0.00
2013-2-3,71.5,62.8,53.1,63.8,60.0,53.1,100,91,72,30.31,30.05,16,2,17,0.01
2013-2-4,74.2,68.0,62.7,68.0,64.9,60.3,100,90,79,30.04,29.82,17,4,21,0.00
2013-2-5,79.5,69.1,63.1,70.8,67.2,63.1,100,94,73,29.98,29.87,16,3,16,0.01
2013-2-6,69.3,66.0,62.6,69.3,65.8,61.4,100,100,95,30.02,29.83,22,4,26,1.71
2013-2-7,76.0,67.1,61.0,71.3,65.9,60.9,100,96,83,30.00,29.89,11,0,12,0.01
2013-2-8,73.4,63.2,56.4,63.3,57.1,52.6,100,82,50,30.21,30.01,15,3,17,0.00
2013-2-9,71.4,67.2,61.4,70.1,65.5,59.1,100,94,91,30.09,29.81,28,6,29,0.00
2013-2-10,80.0,70.1,66.0,73.0,64.2,52.4,100,83,60,29.94,29.76,19,4,23,0.00
2013-2-11,65.9,62.0,57.7,61.8,57.8,53.6,100,87,70,30.00,29.90,20,4,23,0.01
2013-2-12,70.0,61.4,57.8,63.6,59.7,56.7,100,95,76,30.00,29.83,16,2,16,0.02
2013-2-13,63.2,55.1,47.2,58.6,47.2,41.6,100,76,48,30.19,29.99,17,3,19,0.00
2013-2-14,64.7,55.8,42.4,54.2,47.5,40.6,100,75,46,30.17,30.06,15,2,15,0.00
2013-2-15,69.4,60.2,48.7,61.5,51.9,44.6,100,76,48,30.33,30.07,19,3,21,0.00
2013-2-16,65.3,55.0,43.4,45.6,38.0,30.0,71,54,31,30.50,30.29,17,4,23,0.00
2013-2-17,69.5,61.5,50.6,59.9,52.6,45.0,87,74,53,30.29,30.02,27,5,27,0.00
2013-2-18,74.2,68.4,65.4,67.2,64.1,59.8,94,86,78,30.03,29.87,22,7,26,0.00
2013-2-19,66.7,62.7,59.8,65.3,53.6,44.1,100,73,54,30.23,30.00,21,7,24,0.00
2013-2-20,70.7,67.6,63.0,69.1,65.0,58.3,100,91,84,30.05,29.70,27,7,27,0.00
2013-2-21,81.8,71.4,66.2,72.7,65.4,52.2,100,83,53,29.83,29.61,26,6,32,0.00
2013-2-22,71.1,65.3,59.4,58.3,51.6,44.5,85,63,43,29.95,29.81,17,3,19,0.00
2013-2-23,71.9,59.6,52.3,56.2,50.2,43.5,100,72,55,30.04,29.89,14,2,15,0.00
2013-2-24,66.8,59.6,47.8,65.8,59.1,47.8,100,98,89,29.93,29.63,15,1,19,0.02
2013-2-25,73.0,65.8,52.6,69.3,44.1,18.5,100,56,14,29.90,29.54,62,14,62,0.01
2013-2-26,73.5,57.1,42.3,53.7,37.1,26.5,85,51,18,30.03,29.87,20,4,20,0.00
2013-2-27,76.8,61.5,49.7,61.4,48.3,34.5,100,67,23,30.21,29.90,19,2,19,0.00
2013-2-28,61.9,52.4,44.0,37.4,33.6,28.6,72,50,32,30.33,30.20,19,4,19,0.00
2013-3-1,67.6,55.8,41.1,49.4,38.6,30.1,83,55,26,30.31,30.16,24,3,24,0.00
2013-3-2,65.9,54.1,46.4,45.7,36.4,27.4,91,56,25,30.43,30.26,19,4,21,0.00
2013-3-3,68.5,57.5,39.6,56.5,47.6,35.8,94,71,51,30.31,30.02,26,5,26,0.00
2013-3-4,74.2,67.3,62.3,63.7,61.2,56.4,93,81,68,30.02,29.78,34,10,36,0.00
2013-3-5,69.8,63.4,52.8,64.2,47.3,28.4,95,61,26,30.33,29.82,30,8,30,0.00
2013-3-6,60.7,52.8,40.4,48.5,38.5,28.6,93,60,40,30.45,30.25,20,3,23,0.00
2013-3-7,72.0,63.2,49.8,62.4,58.5,47.8,100,85,70,30.25,30.13,28,5,34,0.00
2013-3-8,73.7,68.3,65.0,67.8,65.0,62.1,94,89,81,30.14,30.03,27,7,29,0.00
2013-3-9,74.3,69.6,67.6,69.0,66.7,65.4,95,91,82,30.03,29.68,36,10,36,0.00
2013-3-10,77.7,68.4,57.5,69.3,55.9,40.9,100,69,30,30.08,29.61,34,9,34,0.14
2013-3-11,72.3,60.1,47.0,44.9,36.4,26.3,74,45,20,30.18,30.01,31,5,31,0.00
2013-3-12,71.0,61.1,45.2,55.5,48.5,40.9,91,65,41,30.24,30.08,18,3,19,0.00
2013-3-13,69.9,62.2,51.7,59.4,54.4,48.8,100,77,51,30.42,30.24,22,4,22,0.00
2013-3-14,74.3,65.6,56.1,63.2,58.4,54.8,100,79,59,30.40,30.27,24,4,24,0.00
2013-3-15,74.0,67.6,62.1,63.6,61.8,59.3,93,82,67,30.29,30.07,26,7,29,0.00
2013-3-16,76.3,69.5,65.3,67.0,64.8,62.0,93,85,72,30.07,29.83,28,9,30,0.00
2013-3-17,77.4,71.2,66.7,70.7,68.0,65.1,100,90,78,29.86,29.68,20,8,32,0.00
2013-3-18,77.5,71.6,67.8,70.1,68.3,66.2,100,90,75,29.90,29.72,17,5,19,0.00
2013-3-19,77.8,69.3,59.9,71.4,67.3,58.6,100,94,75,29.99,29.83,22,5,24,0.01
2013-3-20,75.3,68.5,63.1,69.3,60.2,51.0,100,76,54,30.15,29.90,37,10,37,0.00
2013-3-21,74.6,68.5,63.3,67.4,63.3,57.4,93,84,72,30.06,29.69,20,6,26,0.00
2013-3-22,77.3,72.0,69.3,73.0,70.1,67.4,100,94,85,29.75,29.64,19,6,26,0.00
2013-3-23,79.0,71.7,67.2,74.3,69.7,65.5,100,94,73,29.71,29.59,14,2,19,0.01
2013-3-24,68.5,63.0,52.2,67.6,44.5,25.6,100,59,21,30.15,29.66,34,8,34,0.01
2013-3-25,61.9,53.1,43.8,36.7,31.8,14.3,67,46,17,30.37,30.15,24,5,29,0.00
2013-3-26,63.9,56.5,47.4,41.4,36.0,31.5,69,47,32,30.48,30.33,21,5,23,0.00
2013-3-27,67.5,64.3,56.9,59.0,53.2,41.3,82,68,56,30.36,30.21,24,6,24,0.00
2013-3-28,73.0,67.4,63.9,63.8,62.1,59.0,90,83,72,30.23,30.15,23,5,24,0.00
2013-3-29,74.8,67.9,63.3,66.7,64.2,61.8,100,88,75,30.19,30.08,24,4,26,0.00
2013-3-30,78.2,70.9,66.3,70.9,67.3,64.3,95,89,77,30.12,29.95,23,6,23,0.00
2013-3-31,77.8,71.7,68.3,72.0,69.4,67.2,100,93,81,29.99,29.80,27,6,36,0.00
2013-4-1,75.8,70.8,65.8,71.6,69.1,65.8,100,95,82,30.04,29.90,24,5,24,0.00
2013-4-2,78.3,72.1,69.2,73.3,70.7,69.2,100,96,83,30.01,29.79,21,5,21,0.01
2013-4-3,74.9,66.7,56.5,70.8,62.0,52.6,100,86,67,30.12,29.80,19,5,19,0.00
2013-4-4,73.8,61.2,53.4,52.7,50.4,46.7,93,71,41,30.19,30.06,13,4,13,0.00
2013-4-5,65.5,57.8,46.6,57.8,50.9,43.3,91,78,63,30.29,30.11,18,3,21,0.00
2013-4-6,75.7,68.6,61.6,64.6,62.2,57.4,89,80,65,30.12,29.91,26,7,26,0.00
2013-4-7,77.5,71.4,66.7,67.9,66.3,64.0,93,84,70,29.95,29.83,27,7,29,0.00
2013-4-8,77.5,72.6,69.1,72.0,69.9,67.6,100,91,82,29.84,29.69,26,8,30,0.00
2013-4-9,79.2,74.4,70.5,73.9,71.4,68.7,95,91,82,29.74,29.60,32,10,32,0.00
2013-4-10,78.3,67.2,58.0,74.5,63.4,51.4,100,88,69,29.70,29.11,24,8,24,0.00
2013-4-11,73.0,58.7,45.2,54.1,48.6,43.9,100,72,40,29.31,29.14,22,5,24,0.49
2013-4-12,72.5,63.2,51.1,63.4,58.4,50.3,100,85,70,29.32,29.21,26,4,29,0.00
2013-4-13,74.8,69.3,63.6,66.9,64.2,61.7,100,85,69,29.28,29.09,34,5,34,0.00
2013-4-14,79.7,72.3,65.5,73.0,69.4,64.2,100,91,78,29.12,29.01,22,5,23,0.00
2013-4-15,81.3,74.8,70.4,74.4,71.9,68.9,100,91,77,29.15,29.04,27,8,27,0.00
2013-4-16,78.2,74.4,72.8,74.6,72.6,69.9,100,94,86,29.21,29.10,24,7,34,0.00
2013-4-17,78.6,75.1,73.0,75.1,73.9,72.7,100,96,89,29.20,28.97,28,8,29,0.00
2013-4-18,77.8,68.2,58.0,76.0,65.4,49.5,100,91,69,29.32,28.93,29,9,29,0.05
2013-4-19,67.8,58.5,50.4,49.5,42.3,34.5,81,56,36,29.58,29.33,27,6,27,0.00
2013-4-20,70.3,60.5,44.4,57.2,49.2,40.8,91,68,44,29.49,29.32,23,4,23,0.00
2013-4-21,75.8,69.6,62.7,65.4,61.9,57.1,90,77,64,29.39,29.30,23,5,26,0.00
2013-4-22,78.2,73.7,69.3,69.4,68.1,65.9,94,83,72,29.36,29.21,23,6,26,0.00
2013-4-23,78.5,73.2,69.5,72.9,70.4,68.1,100,91,80,29.23,29.12,26,7,30,0.00
2013-4-24,73.2,57.5,49.6,73.2,53.9,47.3,100,88,76,29.45,29.23,26,6,26,0.03
2013-4-25,67.4,63.1,60.9,67.4,58.0,51.9,100,84,68,29.53,29.41,19,4,19,0.03
2013-4-26,79.1,72.7,67.5,74.0,71.2,67.4,100,95,83,29.44,29.31,26,6,26,0.01
2013-4-27,80.0,74.5,71.7,74.0,72.4,71.5,100,93,80,29.35,29.20,24,6,29,0.00
2013-4-28,75.0,70.9,64.4,72.9,69.5,64.4,100,95,88,29.31,29.12,29,5,29,0.92
2013-4-29,80.0,73.3,69.5,75.2,72.0,69.4,100,96,79,29.21,29.04,20,4,21,0.23
2013-4-30,79.2,72.5,64.5,73.7,70.4,64.5,100,94,79,29.08,28.95,20,4,24,0.08
2013-5-1,80.7,74.1,71.6,74.9,72.7,71.5,100,96,82,29.13,29.00,17,3,19,0.00
2013-5-2,82.3,68.5,53.8,72.7,61.6,44.5,100,79,61,29.48,29.04,28,9,29,0.02
2013-5-3,71.0,59.3,50.4,44.9,36.8,32.0,72,45,25,29.52,29.31,29,9,29,0.00
2013-5-4,76.0,65.4,52.1,58.1,49.3,36.6,79,58,36,29.34,29.15,18,4,18,0.00
2013-5-5,81.4,69.6,59.5,61.2,58.3,50.8,92,69,35,29.31,29.18,18,2,18,0.00
2013-5-6,77.5,68.6,57.8,63.2,59.8,55.3,94,75,51,29.35,29.20,17,3,17,0.00
2013-5-7,78.0,72.4,59.3,69.3,64.8,57.6,100,78,66,29.30,29.19,20,5,20,0.00
2013-5-8,79.2,73.9,70.9,71.4,69.5,67.8,93,86,72,29.25,29.15,25,6,32,0.00
2013-5-9,78.9,75.7,73.6,75.6,73.8,71.1,100,94,88,29.18,29.04,20,6,29,0.00
2013-5-10,76.0,74.5,69.0,76.0,73.4,67.5,100,97,90,29.17,29.04,26,4,29,0.10
2013-5-11,84.3,75.2,68.5,71.9,69.9,66.8,100,85,56,29.30,29.16,19,4,24,0.20
2013-5-12,76.7,71.2,66.7,74.4,65.6,60.4,100,83,70,29.39,29.25,20,2,21,0.22
2013-5-13,79.2,72.4,63.4,68.9,65.9,61.8,100,81,67,29.47,29.36,22,3,26,0.00
2013-5-14,81.0,76.8,71.2,73.9,71.7,66.2,92,84,76,29.43,29.28,23,7,29,0.00
2013-5-15,78.6,75.4,73.2,75.6,73.3,71.4,100,93,87,29.33,29.12,33,8,33,0.36
2013-5-16,81.8,77.4,74.4,76.6,74.0,71.6,95,89,83,29.12,28.98,31,10,36,0.00
2013-5-17,83.3,78.3,75.1,77.1,75.1,73.2,100,90,73,29.13,29.01,26,8,26,0.00
2013-5-18,84.9,79.1,76.6,76.9,75.6,74.7,100,89,75,29.15,29.06,26,8,29,0.00
2013-5-19,83.3,79.1,77.0,77.4,75.7,74.8,94,89,81,29.11,28.98,32,9,32,0.00
2013-5-20,83.5,79.4,76.8,77.8,76.1,75.0,95,90,82,29.07,28.95,26,8,26,0.00
2013-5-21,84.8,80.0,77.3,78.6,76.8,75.7,100,90,79,29.03,28.93,25,7,26,0.00
2013-5-22,86.2,80.7,77.5,78.8,77.5,76.1,100,91,74,29.10,28.99,17,4,17,0.00
2013-5-23,84.7,80.1,77.6,79.3,77.5,76.1,100,92,83,29.21,29.07,20,6,23,0.00
2013-5-24,84.5,80.6,78.5,79.0,77.1,76.2,100,89,78,29.29,29.17,26,6,26,0.00
2013-5-25,82.5,79.9,78.2,78.0,76.7,75.4,93,90,84,29.30,29.20,24,8,26,0.00
2013-5-26,85.0,80.4,77.4,76.2,74.7,72.9,91,83,69,29.28,29.17,24,7,24,0.00
2013-5-27,85.4,80.8,77.8,77.4,75.9,74.0,92,85,76,29.21,29.07,30,9,38,0.00
2013-5-28,84.6,80.9,78.8,78.0,76.4,75.1,91,86,79,29.11,29.00,31,11,40,0.00
2013-5-29,83.3,80.7,79.2,78.6,76.9,75.4,91,89,85,29.05,28.94,36,10,36,0.00
2013-5-30,86.5,81.9,79.2,79.7,77.8,76.3,93,88,79,29.03,28.95,19,9,29,0.00
2013-5-31,87.8,82.7,79.5,80.2,78.5,77.3,93,87,77,29.07,28.97,27,8,29,0.00
2013-6-1,87.7,83.3,80.6,80.0,78.5,77.2,92,86,77,29.07,28.98,26,9,30,0.00
2013-6-2,89.3,81.0,73.1,80.5,77.0,72.2,100,88,70,29.19,29.03,19,3,23,1.26
2013-6-3,85.6,79.5,70.5,78.5,74.1,70.5,100,84,69,29.12,29.01,20,2,21,0.00
2013-6-4,86.7,79.9,70.9,76.2,73.4,69.5,100,82,66,29.07,28.99,14,3,15,0.00
2013-6-5,88.5,82.8,77.5,78.8,76.2,73.7,92,81,68,29.03,28.94,18,4,21,0.00
2013-6-6,88.9,83.3,75.3,80.0,77.8,73.8,100,84,71,29.01,28.91,12,3,13,0.00
2013-6-7,86.5,78.9,70.2,78.5,75.3,68.5,100,89,70,29.09,28.99,34,1,34,0.64
2013-6-8,87.5,79.8,70.7,80.3,75.8,70.7,100,88,67,29.06,28.95,21,3,29,0.01
2013-6-9,89.8,84.1,80.4,80.4,78.1,73.8,94,83,66,29.07,28.96,22,5,24,0.01
2013-6-10,88.8,83.6,76.9,80.5,78.0,75.2,100,84,73,29.11,29.05,20,3,24,0.00
2013-6-11,89.0,84.0,80.3,81.3,77.9,75.0,89,82,72,29.16,29.07,20,5,23,0.00
2013-6-12,88.3,83.6,75.6,81.0,78.5,72.2,100,85,74,29.16,29.10,20,5,26,0.04
2013-6-13,89.0,84.3,82.0,81.2,79.2,77.1,90,85,73,29.16,29.04,22,5,23,0.00
2013-6-14,89.3,84.2,82.0,81.5,79.4,78.0,90,86,77,29.10,29.01,18,5,24,0.00
2013-6-15,90.2,85.0,81.9,79.3,78.3,76.2,90,81,67,29.10,29.01,20,6,23,0.00
2013-6-16,89.7,84.7,81.5,81.3,78.8,77.1,89,83,73,29.13,29.05,22,7,24,0.00
2013-6-17,90.3,84.9,81.8,81.3,79.1,77.4,91,83,71,29.10,29.00,25,7,26,0.00
2013-6-18,90.2,84.6,80.1,79.8,78.2,76.5,90,82,68,29.10,29.00,21,6,23,0.00
2013-6-19,90.0,84.6,80.7,79.6,77.9,76.7,89,81,69,29.11,29.02,23,6,23,0.00
2013-6-20,90.3,84.7,81.1,80.1,78.7,77.4,90,83,71,29.16,29.06,24,6,24,0.00
2013-6-21,89.6,84.7,80.8,79.9,78.6,77.5,91,82,70,29.18,29.10,22,6,24,0.00
2013-6-22,90.5,84.6,80.6,79.7,78.3,75.4,92,82,64,29.15,29.04,21,6,23,0.00
2013-6-23,89.3,84.4,80.3,79.6,78.1,76.3,91,82,69,29.10,29.02,23,6,24,0.00
2013-6-24,90.2,84.6,81.1,80.3,78.7,77.2,91,83,71,29.14,29.05,27,8,29,0.00
2013-6-25,89.0,84.0,80.6,80.1,78.7,77.6,92,84,74,29.12,29.02,26,8,32,0.00
2013-6-26,90.0,84.3,80.6,81.3,79.3,78.0,93,85,72,29.08,29.02,26,7,30,0.00
2013-6-27,89.5,84.0,79.6,79.1,78.0,76.7,92,83,70,29.11,29.03,20,5,29,0.00
2013-6-28,90.5,84.6,79.2,79.3,78.0,75.8,94,81,68,29.09,28.95,22,5,22,0.00
2013-6-29,94.5,85.4,78.5,80.7,77.8,75.2,93,79,55,28.98,28.84,16,5,17,0.00
2013-6-30,88.9,80.2,71.1,77.6,73.9,69.5,100,82,63,29.02,28.86,21,3,29,0.73
2013-7-1,92.4,82.6,74.1,76.8,71.8,66.2,93,72,45,29.06,28.93,16,2,17,0.00
2013-7-2,93.5,82.5,74.2,74.9,71.1,61.9,94,71,37,29.11,29.02,17,2,19,0.02
2013-7-3,91.5,81.7,74.6,75.9,73.1,67.3,89,76,47,29.10,29.00,18,3,18,0.00
2013-7-4,87.8,81.9,72.8,77.6,75.0,71.2,100,80,66,29.07,28.99,20,3,24,0.00
2013-7-5,88.3,81.1,72.9,79.4,76.0,71.7,100,85,70,29.05,28.99,12,1,17,0.00
2013-7-6,88.0,84.5,79.1,79.1,76.9,75.5,90,78,70,29.02,28.92,20,6,26,0.00
2013-7-7,86.8,82.3,77.0,78.4,75.9,72.5,100,81,66,29.04,28.94,26,5,29,0.49
2013-7-8,87.3,82.6,79.5,78.5,77.0,75.4,91,83,72,29.13,29.02,20,6,24,0.00
2013-7-9,88.0,82.9,78.1,79.2,77.3,75.9,95,83,71,29.14,29.05,20,4,23,0.00
2013-7-10,88.2,83.3,78.4,77.7,76.5,74.7,92,81,65,29.09,28.98,21,4,23,0.00
2013-7-11,88.3,83.2,78.7,76.9,75.8,74.0,89,79,65,29.02,28.93,18,5,23,0.00
2013-7-12,88.7,82.9,77.4,77.4,75.2,72.4,89,78,64,28.97,28.91,18,4,19,0.00
2013-7-13,90.0,82.7,75.3,77.1,74.2,70.8,94,77,55,28.98,28.87,17,3,23,0.00
2013-7-14,87.9,82.6,77.5,77.5,75.4,73.7,91,79,66,28.94,28.85,19,6,23,0.00
2013-7-15,88.8,82.9,80.3,77.4,75.7,73.5,86,79,66,28.98,28.86,24,7,29,0.00
2013-7-16,86.0,81.0,77.8,77.0,75.2,73.3,92,83,71,29.04,28.94,27,7,30,0.12
2013-7-17,79.8,75.8,72.8,77.3,74.0,70.8,100,94,85,29.12,29.02,18,2,18,0.94
2013-7-18,84.3,77.5,68.5,78.6,74.6,68.5,100,91,75,29.08,28.94,18,1,19,1.55
2013-7-19,87.0,81.4,73.9,80.8,75.9,73.9,100,84,71,29.01,28.90,21,3,24,0.12
2013-7-20,87.6,82.0,77.4,78.1,75.9,74.2,91,82,71,28.96,28.85,18,4,18,0.00
2013-7-21,88.2,83.4,80.5,79.9,77.8,75.2,90,84,73,28.94,28.87,25,7,34,0.00
2013-7-22,88.3,84.0,81.2,79.7,78.4,77.4,89,84,73,28.98,28.90,29,8,29,0.00
2013-7-23,88.0,83.4,80.5,78.9,76.9,74.9,88,81,72,28.99,28.89,23,8,24,0.00
2013-7-24,87.2,81.8,80.2,78.0,76.6,75.5,89,84,72,28.95,28.87,21,6,21,0.00
2013-7-25,88.7,83.4,79.0,79.5,77.4,75.0,91,82,73,28.99,28.93,24,5,24,0.00
2013-7-26,88.1,83.2,80.1,79.9,77.5,75.7,89,83,75,29.00,28.89,26,8,30,0.00
2013-7-27,88.2,82.8,79.8,78.9,77.5,76.5,92,84,72,28.94,28.80,23,7,24,0.00
2013-7-28,87.8,82.9,79.3,78.6,77.8,77.0,93,85,73,28.91,28.84,30,8,32,0.00
2013-7-29,87.5,82.8,79.3,78.2,77.2,76.1,92,83,71,29.01,28.90,27,8,34,0.00
2013-7-30,87.5,82.5,78.8,79.0,77.5,76.2,94,85,74,29.06,28.98,30,7,30,0.00
2013-7-31,87.3,81.1,77.5,78.2,76.4,74.7,92,86,71,29.05,28.99,17,4,17,0.00
2013-8-3,88.8,85.4,80.8,79.2,78.1,76.7,92,79,70,28.98,28.91,22,6,23,0.00
2013-8-4,89.1,83.9,80.2,79.6,77.8,75.4,92,83,68,29.01,28.93,27,6,27,0.00
2013-8-5,81.1,80.6,80.1,78.0,77.6,77.2,92,91,89,28.99,28.95,14,5,15,0.00
2013-8-7,88.8,84.4,79.8,79.1,78.0,76.9,92,81,72,28.89,28.79,30,9,30,0.00
2013-8-8,88.2,82.7,78.5,79.6,77.7,76.3,93,85,73,28.86,28.78,25,6,29,0.00
2013-8-9,89.3,82.9,77.6,79.1,77.1,75.4,93,83,67,28.90,28.82,20,4,24,0.00
2013-8-10,89.3,82.2,75.7,82.0,78.1,75.7,100,88,70,28.95,28.86,20,3,20,0.00
2013-8-11,88.8,82.6,76.5,80.2,76.9,73.8,100,84,67,28.97,28.90,26,3,30,0.00
2013-8-12,88.9,83.1,77.5,78.7,76.8,74.8,92,82,66,28.99,28.90,20,4,20,0.00
2013-8-13,89.9,84.0,79.9,78.9,77.8,76.7,91,82,68,28.97,28.83,21,6,24,0.00
2013-8-14,91.3,83.8,79.9,78.3,76.6,70.7,91,80,53,28.91,28.81,22,6,23,0.00
2013-8-15,90.5,83.1,78.7,78.8,76.4,73.2,91,81,60,28.90,28.82,20,4,24,0.00
2013-8-16,89.8,83.4,76.0,78.8,76.8,72.8,91,81,61,28.91,28.80,24,3,26,0.00
2013-8-17,89.3,81.0,72.8,77.0,73.7,71.1,100,80,60,28.91,28.82,23,3,26,0.00
2013-8-18,88.5,81.5,71.5,77.0,72.1,65.5,100,75,50,28.93,28.85,22,3,26,0.00
2013-8-19,88.5,80.2,70.4,77.7,73.6,68.5,100,81,64,28.93,28.83,21,3,26,0.00
2013-8-20,81.2,77.8,72.4,76.8,74.1,70.2,100,89,80,28.94,28.83,14,2,17,0.45
2013-8-21,88.7,82.5,74.4,79.0,76.7,70.7,95,83,69,28.95,28.88,21,3,21,0.02
2013-8-22,88.3,83.0,79.1,80.2,76.9,75.2,91,82,69,28.95,28.84,16,2,16,0.58
2013-8-23,80.4,78.9,75.8,76.5,75.8,74.0,95,90,88,28.88,28.84,3,0,6,0.00
2013-8-24,88.2,84.7,80.6,79.7,77.7,75.5,89,80,70,28.91,28.84,23,4,23,0.00
2013-8-25,88.1,83.0,74.9,79.0,76.6,73.3,95,82,68,28.94,28.87,20,3,24,0.00
2013-8-26,80.9,75.9,72.3,76.8,74.9,72.3,100,97,85,28.97,28.89,19,1,19,3.22
2013-8-27,87.5,82.4,77.7,79.7,77.2,74.6,95,85,68,28.97,28.88,18,4,23,0.01
2013-8-28,88.0,81.2,73.8,79.5,75.9,72.5,100,85,68,28.96,28.89,18,2,26,0.00
2013-8-29,90.5,83.3,75.1,82.1,75.6,71.4,100,79,57,28.95,28.86,18,2,18,0.00
2013-8-30,90.0,83.3,76.9,78.3,75.4,69.6,94,78,53,28.91,28.80,14,2,14,0.00
2013-8-31,89.0,82.7,75.8,76.5,74.9,73.1,93,78,63,28.84,28.74,14,3,19,0.00
2013-9-1,89.5,83.8,76.9,78.8,76.6,74.0,93,79,65,28.80,28.72,22,5,22,0.00
2013-9-2,89.7,84.2,79.7,79.2,76.9,72.7,89,79,64,28.84,28.74,18,4,21,0.00
2013-9-3,88.8,82.7,75.8,80.0,76.2,72.7,100,81,65,28.88,28.77,15,2,17,0.00
2013-9-4,89.1,82.7,74.6,78.8,75.8,73.0,100,80,62,28.90,28.80,19,2,19,0.00
2013-9-5,88.0,83.2,77.5,78.7,76.3,74.0,93,80,67,28.91,28.83,22,3,23,0.00
2013-9-6,87.3,80.4,74.6,80.6,75.9,72.3,100,87,72,28.91,28.81,18,1,18,0.47
2013-9-7,86.3,79.7,73.8,80.8,75.9,73.7,100,89,77,28.86,28.76,22,2,22,2.37
2013-9-8,83.3,77.8,72.4,77.9,74.7,71.0,100,90,80,28.83,28.72,17,2,19,0.66
2013-9-9,85.0,79.4,73.5,77.9,75.4,72.0,100,88,74,28.80,28.74,27,6,29,0.37
2013-9-10,86.2,81.3,76.7,78.5,75.8,73.1,95,84,72,28.85,28.76,26,5,26,0.04
2013-9-11,87.1,80.8,74.2,80.3,76.4,72.2,100,87,74,28.88,28.81,23,3,23,0.47
2013-9-12,87.0,80.8,69.2,79.5,75.5,67.2,100,85,67,28.87,28.74,25,2,29,1.40
2013-9-13,87.0,81.1,73.9,77.8,75.4,71.3,100,84,69,28.77,28.66,14,2,19,0.00
2013-9-14,87.2,82.2,76.9,78.7,76.0,74.3,93,82,68,28.74,28.65,19,3,24,0.00
2013-9-15,87.0,82.0,76.4,79.8,76.8,72.7,95,84,74,28.77,28.68,24,6,26,0.15
2013-9-16,86.2,80.5,75.7,79.5,76.8,72.8,100,89,80,28.81,28.72,29,5,36,0.31
2013-9-17,86.7,83.0,78.6,79.7,77.4,74.4,95,83,75,28.83,28.75,20,5,23,0.33
2013-9-18,85.7,81.9,79.4,79.2,77.0,74.7,92,85,77,28.81,28.71,18,4,21,0.35
2013-9-19,87.3,82.2,77.6,79.5,77.3,75.5,94,85,75,28.74,28.65,21,4,23,0.01
2013-9-20,87.5,81.7,73.3,80.3,78.0,73.3,100,89,77,28.67,28.54,22,5,22,0.74
2013-9-21,76.2,73.7,71.0,74.5,71.2,67.8,100,92,79,28.64,28.54,15,2,19,0.40
2013-9-22,84.5,75.0,67.0,69.1,65.9,59.8,95,76,44,28.61,28.54,12,1,13,0.00
2013-9-23,85.6,79.0,68.9,76.2,71.9,66.2,93,79,73,28.58,28.53,6,1,8,0.00
2013-9-24,92.7,86.3,77.6,76.8,74.2,70.2,95,69,49,28.67,28.60,11,1,19,0.00
2013-9-25,91.0,81.1,69.8,77.2,71.4,62.4,100,75,39,28.68,28.59,11,1,13,0.00
2013-9-26,88.0,81.1,76.0,78.5,74.9,72.9,93,82,67,28.67,28.59,16,3,19,0.00
2013-9-27,86.5,82.7,80.0,80.0,78.0,75.3,92,86,77,28.69,28.62,24,7,26,0.00
2013-9-28,87.8,82.9,80.8,79.6,77.7,75.7,91,85,73,28.74,28.65,24,7,26,0.00
2013-9-29,88.2,79.5,72.4,77.1,75.2,72.4,100,87,65,28.77,28.66,15,2,17,2.58
2013-9-30,84.3,80.7,74.3,78.9,76.6,74.2,100,87,79,28.70,28.59,13,2,15,0.01
2013-10-1,85.2,80.1,75.4,80.6,76.5,73.7,100,89,79,28.68,28.60,17,4,21,0.53
2013-10-2,86.5,82.0,78.3,77.8,75.9,73.4,90,82,73,28.72,28.64,20,5,21,0.00
2013-10-3,86.0,81.5,77.5,76.4,74.6,72.2,91,80,67,28.71,28.64,18,4,18,0.00
2013-10-4,86.0,81.4,79.0,77.1,75.1,73.1,87,81,74,28.69,28.63,19,5,19,0.00
2013-10-5,86.3,81.0,75.8,78.0,75.7,73.2,94,84,74,28.70,28.62,17,2,17,0.00
2013-10-6,80.7,67.4,56.4,76.5,56.9,-99.9,100,72,38,28.81,28.48,10,1,15,0.26
2013-10-7,82.8,67.1,52.5,59.7,52.6,46.2,89,64,30,28.58,28.46,3,0,8,0.00
2013-10-8,80.3,68.9,55.0,63.3,59.2,53.0,93,73,46,28.49,28.40,4,0,9,0.00
2013-10-9,82.2,75.1,69.1,67.9,65.0,61.3,78,71,56,28.44,28.35,5,2,11,0.00
2013-10-10,84.6,79.3,74.5,72.9,70.1,65.7,81,74,58,28.40,28.29,7,4,16,0.00
2013-10-11,85.8,81.4,78.3,79.0,76.0,72.0,91,84,77,28.31,28.22,8,5,15,0.00
2013-10-12,87.3,82.4,79.7,79.8,78.2,77.3,94,87,75,28.37,28.25,8,4,16,0.00
2013-10-13,83.8,80.0,75.6,77.8,76.3,73.0,94,89,80,30.10,28.35,7,3,13,0.22
2013-10-14,84.2,80.6,77.7,76.0,73.9,71.0,92,80,68,30.06,29.94,8,4,16,0.06
2013-10-15,85.5,80.8,78.4,74.6,73.1,71.6,85,78,67,29.98,29.88,6,4,12,0.00
2013-10-16,80.1,73.8,63.9,75.9,68.4,60.0,92,83,73,30.02,29.88,4,0,7,0.00
2013-10-17,77.2,68.3,63.3,63.8,60.3,55.6,88,76,61,30.06,29.93,2,0,8,0.00
2013-10-18,78.1,73.2,66.7,74.7,70.1,61.6,96,90,82,29.96,29.79,4,1,11,0.37
2013-10-19,72.9,65.8,58.9,71.2,58.5,49.1,96,79,47,30.08,29.85,3,1,8,0.11
2013-10-20,76.1,65.5,54.7,66.9,60.0,52.1,94,83,71,30.02,29.87,3,0,6,0.00
2013-10-21,79.3,73.2,67.2,74.1,69.5,65.1,98,89,79,29.90,29.80,5,1,9,1.01
2013-10-22,78.9,67.8,58.7,68.4,60.2,49.8,98,79,46,30.03,29.90,1,0,5,0.00
2013-10-23,79.9,65.1,50.4,59.4,52.3,44.3,94,68,29,30.11,30.00,2,0,7,0.00
2013-10-24,79.8,67.4,55.5,65.8,60.4,53.8,95,80,52,30.14,30.03,4,0,12,0.00
2013-10-25,79.2,71.6,61.1,72.7,66.0,59.7,97,83,68,30.19,30.09,5,2,15,0.03
2013-10-26,81.6,76.4,72.7,70.6,68.6,65.6,87,77,64,30.10,29.97,9,4,16,0.00
2013-10-27,83.1,75.4,67.2,74.2,70.2,66.0,97,85,64,30.00,29.89,7,2,12,0.00
2013-10-28,82.2,77.2,73.3,73.6,71.7,70.7,93,84,70,29.98,29.89,8,4,16,0.00
2013-10-29,82.3,78.4,75.5,75.3,73.1,71.1,92,84,74,29.99,29.89,10,5,18,0.00
2013-10-30,83.4,79.3,77.0,77.9,76.2,75.0,94,90,83,29.92,29.75,10,6,23,0.00
2013-10-31,87.3,78.8,73.3,79.2,75.2,69.9,97,89,62,29.79,29.69,7,3,15,1.02
2013-11-1,81.9,75.0,65.9,71.8,68.9,62.3,95,82,69,29.90,29.74,6,2,11,0.00
2013-11-2,76.6,67.2,58.8,67.7,46.2,37.5,93,49,25,30.13,29.90,3,1,9,0.00
2013-11-3,75.2,64.5,51.2,58.8,52.7,42.9,88,67,50,30.09,29.92,5,1,10,0.00
2013-11-4,76.3,69.5,59.2,69.8,64.4,56.0,94,84,64,29.94,29.83,4,1,9,0.00
2013-11-5,81.5,75.1,67.5,74.0,71.1,65.7,97,88,76,29.90,29.81,9,3,16,0.00
2013-11-6,83.5,72.5,56.8,74.4,68.0,52.3,96,86,69,30.10,29.85,4,2,10,0.08
2013-11-7,65.8,57.2,54.1,52.2,45.9,40.6,85,66,41,30.23,30.09,6,1,7,0.00
2013-11-8,68.5,60.2,51.1,57.5,52.0,45.1,91,75,64,30.20,30.02,9,0,9,0.00
2013-11-9,75.3,65.4,56.1,66.3,61.3,54.5,96,87,71,30.03,29.96,13,0,13,0.00
2013-11-10,67.1,64.9,63.0,64.8,60.9,56.4,96,87,73,30.13,29.99,9,0,9,0.03
2013-11-11,75.8,67.8,61.7,65.7,60.9,54.0,95,79,63,30.10,30.01,12,0,12,0.00
2013-11-12,72.5,62.7,53.7,61.3,55.5,45.3,96,79,55,30.38,30.04,12,2,12,0.00
2013-11-13,57.2,49.6,42.5,47.0,37.5,31.1,79,64,39,30.42,30.27,8,1,8,0.00
2013-11-14,64.5,59.1,45.0,59.3,54.4,41.1,95,85,71,30.13,29.90,2,0,8,0.00
2013-11-15,75.1,64.3,53.0,65.6,60.6,51.8,97,88,69,29.90,29.78,5,1,7,0.00
2013-11-16,77.5,71.9,64.4,74.1,70.2,63.1,98,94,89,29.80,29.68,6,2,13,0.01
2013-11-17,80.7,74.2,70.8,74.1,71.7,69.8,97,92,80,29.80,29.68,6,3,12,0.00
2013-11-18,77.7,72.3,68.0,74.7,70.2,59.5,98,93,73,29.92,29.79,2,1,8,0.01
2013-11-19,71.8,67.4,65.2,64.9,61.9,59.1,91,83,73,29.92,29.83,3,1,8,0.00
2013-11-20,78.6,72.9,67.6,73.5,70.1,63.6,96,91,81,29.83,29.72,5,2,11,0.00
2013-11-21,81.8,76.1,72.2,76.4,73.5,71.0,97,92,82,29.91,29.77,8,3,14,0.00
2013-11-22,76.5,56.9,39.8,75.6,55.8,38.8,99,96,84,30.14,29.87,4,1,10,0.21
2013-11-23,46.5,43.0,39.0,43.9,40.8,38.0,97,92,86,30.20,30.10,2,1,7,0.01
2013-11-24,46.4,44.3,40.7,45.3,40.7,37.4,96,87,78,30.23,30.09,2,1,8,0.12
2013-11-25,44.4,41.6,39.6,43.1,39.7,37.3,96,93,86,30.10,29.84,2,1,8,0.38
2013-11-26,50.0,43.3,39.2,40.3,38.0,35.7,96,82,62,30.17,29.91,6,2,15,0.10
2013-11-27,53.5,41.7,34.8,36.1,31.9,27.6,88,71,38,30.29,30.16,3,0,8,0.00
2013-11-28,41.1,36.2,34.0,37.7,33.2,28.9,91,89,81,30.23,30.18,0,0,1,0.00
2013-11-29,65.2,59.1,51.1,57.6,54.3,50.0,96,84,75,30.26,30.17,4,1,10,0.00
2013-11-30,72.3,61.4,48.6,62.4,56.8,47.5,98,85,65,30.18,30.04,7,1,13,0.00
2013-12-1,76.3,64.5,53.3,64.7,60.2,51.9,98,87,67,30.04,29.83,5,1,10,0.00
2013-12-2,75.8,65.7,59.2,66.5,62.2,58.1,98,89,70,29.83,29.60,5,2,10,0.00
2013-12-3,74.4,67.0,61.6,67.5,64.1,60.3,96,91,78,29.63,29.52,7,4,11,0.01
2013-12-4,75.3,69.1,65.6,70.9,67.3,64.4,98,94,86,29.67,29.56,8,4,17,0.00
2013-12-5,72.9,60.6,41.6,71.7,58.5,37.7,99,93,83,29.84,29.64,4,2,8,0.01
2013-12-6,46.3,39.8,34.6,38.5,34.9,29.7,92,83,73,30.18,29.82,2,1,8,0.00
2013-12-7,34.6,34.0,33.3,31.2,29.8,28.0,90,84,80,30.24,30.08,2,0,6,0.00
2013-12-8,46.6,40.4,33.1,43.8,37.2,30.7,92,88,80,30.08,29.86,0,0,3,0.00
2013-12-9,51.8,46.9,40.4,51.0,45.9,39.1,97,96,91,30.09,29.83,2,0,7,0.06
2013-12-10,46.4,41.2,35.5,39.0,33.0,29.5,95,74,53,30.26,30.09,3,1,8,0.00
2013-12-11,53.4,48.5,43.3,45.2,39.9,34.6,76,72,67,30.28,30.11,0,0,3,0.00
2013-12-12,58.8,48.9,43.2,42.3,39.5,36.8,83,70,49,30.33,30.12,1,0,7,0.00
2013-12-13,66.0,55.2,44.1,59.9,49.8,39.0,93,82,75,30.12,29.70,3,0,6,0.00
2013-12-14,70.8,56.9,43.9,55.7,44.8,37.5,88,66,38,30.11,29.82,3,1,10,0.00
2013-12-15,59.4,46.1,37.0,40.6,36.2,32.2,89,71,38,30.21,30.09,1,0,6,0.00
2013-12-16,62.4,49.1,33.1,49.0,41.5,31.4,96,79,37,30.14,30.04,5,1,8,0.00
2013-12-17,67.5,56.6,40.9,59.6,52.1,40.1,98,86,64,30.14,30.05,4,1,8,0.00
2013-12-18,69.7,58.2,44.5,57.7,53.1,43.7,98,84,63,30.09,29.93,5,1,9,0.01
2013-12-19,71.1,67.3,63.1,65.9,64.3,61.9,97,90,83,29.83,29.67,9,5,17,0.01
2013-12-20,73.2,68.1,62.9,69.7,66.4,61.8,98,94,87,29.69,29.50,10,6,20,0.00
2013-12-21,76.3,66.5,57.2,70.2,63.0,55.5,97,89,63,29.64,29.42,11,4,21,0.01
2013-12-22,69.3,58.8,54.2,58.1,54.8,45.5,96,88,44,29.88,29.63,2,0,4,0.00
2013-12-23,58.8,44.4,38.1,38.7,33.4,30.6,85,67,36,30.30,30.11,3,0,2,0.00
2013-12-24,59.5,48.6,34.5,50.7,42.8,32.1,94,81,64,30.30,30.03,4,1,9,0.00
2013-12-25,67.7,56.9,48.7,60.3,53.8,46.3,96,90,73,30.10,30.00,2,0,2,0.05
2013-12-26,55.6,52.5,49.9,52.8,49.8,47.1,96,90,75,30.16,30.07,1,0,4,0.07
2013-12-27,54.6,50.6,48.3,51.2,48.6,47.0,97,93,82,30.17,30.08,0,0,1,0.09
2013-12-28,61.9,49.8,45.9,47.0,44.4,35.2,96,84,37,30.09,29.85,0,0,2,0.00
2013-12-29,63.3,54.3,39.7,54.3,48.9,38.4,97,83,57,29.94,29.81,3,0,5,0.00
2013-12-30,57.0,43.5,40.3,51.5,37.0,34.1,84,78,70,30.17,29.90,3,1,6,0.01
2013-12-31,46.2,43.2,41.4,42.6,37.6,34.3,94,81,70,30.21,30.04,1,0,4,0.05
2014-1-1,56.4,50.1,44.3,55.6,47.9,42.6,97,92,85,30.04,29.81,1,0,2,0.01
2014-1-2,57.3,48.7,38.8,56.5,38.6,29.5,97,69,48,30.12,28.47,11,2,18,0.20